»·PEaware :: JUS326 KPDX-KSEA

JUS326 :: KPDX-KSEA

FLIGHT INFORMATION

Flight Status: Arrived
Operator:
USA Jet
More flights by this operator :: More flights under this callsign
Pilot: Erik S. (3779)
Aircraft: BOEING 737-300
(B733)
More flights by this aircraft type
Origin: KPDX Portland Intl
United States
Destination: KSEA Seattle-Tacoma Intl
United States
More flights between these airports :: More routes between these airports
Route: +PTLD1 COUGA KIREG HAWKZ6
File this flight plan on PilotEdge
Remarks:
Altitude:
(Current/Filed)
19,000ft
Speed:
(Current/Filed)
400kts
Departed: 30-Nov-17 10:21 AM
Arrived: 30-Nov-17 10:56 AM
Distance/Time
Traveled:
112nm/0:34
Distance/Time
To Go:
Arrived

Flight Plot

Page will automatically refresh every two minutes.

Flight plan parsing failed; only flown route is shown


Map Options




Map Legend


Flown Route
Filed Route
Departure Airport
Arrival Airport
Navaid (VOR, NDB)
Fix

Horizontal Profiles

Position Reports

Time Latitude Longitude Heading Altitude Ground
Speed
30-Nov-17 09:47 45.584207 -122.609192 133 31ft 0kts
30-Nov-17 09:48 45.584207 -122.609192 133 31ft 0kts
30-Nov-17 09:49 45.584207 -122.609192 133 31ft 0kts
30-Nov-17 09:50 45.584207 -122.609192 133 31ft 0kts
30-Nov-17 09:51 45.584207 -122.609192 133 31ft 0kts
30-Nov-17 09:52 45.584207 -122.609192 133 31ft 0kts
30-Nov-17 09:53 45.584207 -122.609192 133 31ft 0kts
30-Nov-17 09:54 45.584207 -122.609192 133 31ft 0kts
30-Nov-17 09:55 45.584207 -122.609192 133 31ft 0kts
30-Nov-17 09:56 45.584207 -122.609192 133 31ft 0kts
30-Nov-17 09:57 45.584207 -122.609192 133 31ft 0kts
30-Nov-17 09:58 45.584207 -122.609192 133 31ft 0kts
30-Nov-17 09:59 45.584207 -122.609192 133 31ft 0kts
30-Nov-17 10:00 45.584207 -122.609192 133 31ft 0kts
30-Nov-17 10:01 45.584207 -122.609192 133 31ft 0kts
30-Nov-17 10:02 45.584207 -122.609192 133 31ft 0kts
30-Nov-17 10:03 45.584207 -122.609192 133 31ft 0kts
30-Nov-17 10:04 45.584207 -122.609192 133 31ft 0kts
30-Nov-17 10:05 45.584207 -122.609192 133 31ft 0kts
30-Nov-17 10:06 45.584207 -122.609192 133 31ft 0kts
30-Nov-17 10:07 45.584207 -122.609192 133 31ft 0kts
30-Nov-17 10:08 45.584207 -122.609192 133 31ft 0kts
30-Nov-17 10:09 45.584207 -122.609192 133 31ft 0kts
30-Nov-17 10:10 45.584207 -122.609192 133 31ft 0kts
30-Nov-17 10:11 45.584207 -122.609192 133 31ft 0kts
30-Nov-17 10:12 45.584207 -122.609192 133 31ft 0kts
30-Nov-17 10:13 45.584207 -122.609192 133 31ft 0kts
30-Nov-17 10:14 45.584207 -122.609192 133 31ft 0kts
30-Nov-17 10:15 45.584207 -122.609192 133 31ft 0kts
30-Nov-17 10:16 45.584207 -122.609192 133 31ft 0kts
30-Nov-17 10:17 45.584207 -122.609192 133 31ft 0kts
30-Nov-17 10:18 45.584207 -122.609192 133 31ft 0kts
30-Nov-17 10:19 45.584454 -122.609555 127 31ft 0kts
30-Nov-17 10:20 45.584351 -122.610092 33 31ft 0kts
30-Nov-17 10:21 45.584361 -122.610084 28 31ft 0kts
30-Nov-17 10:22 45.586236 -122.609026 6 31ft 16kts
30-Nov-17 10:23 45.589698 -122.610913 285 31ft 22kts
30-Nov-17 10:24 45.592077 -122.619723 299 31ft 25kts
30-Nov-17 10:25 45.594867 -122.621582 67 31ft 14kts
30-Nov-17 10:26 45.583448 -122.591177 118 494ft 175kts
30-Nov-17 10:27 45.560296 -122.530223 118 3234ft 202kts
30-Nov-17 10:28 45.530866 -122.450615 118 5785ft 248kts
30-Nov-17 10:29 45.547286 -122.357104 19 8506ft 280kts
30-Nov-17 10:30 45.617474 -122.385462 325 10722ft 309kts
30-Nov-17 10:31 45.697726 -122.445535 335 13364ft 345kts
30-Nov-17 10:32 45.786032 -122.494879 331 15268ft 354kts
30-Nov-17 10:33 45.878657 -122.549268 330 17922ft 366kts
30-Nov-17 10:34 45.975396 -122.606455 330 19234ft 384kts
30-Nov-17 10:35 46.079319 -122.668101 331 19237ft 403kts
30-Nov-17 10:36 46.193686 -122.695877 346 19214ft 415kts
30-Nov-17 10:37 46.308278 -122.718136 345 19218ft 415kts
30-Nov-17 10:38 46.424777 -122.724759 352 19215ft 420kts
30-Nov-17 10:39 46.539494 -122.728696 351 19209ft 389kts
30-Nov-17 10:40 46.638930 -122.732372 351 19136ft 365kts
30-Nov-17 10:41 46.741278 -122.736086 351 19165ft 363kts
30-Nov-17 10:42 46.835218 -122.681095 35 19163ft 393kts
30-Nov-17 10:43 46.920839 -122.583233 33 17950ft 376kts
30-Nov-17 10:44 47.010797 -122.531454 10 16121ft 330kts
30-Nov-17 10:45 47.096401 -122.497947 2 14175ft 307kts
30-Nov-17 10:46 47.179834 -122.483284 3 12093ft 297kts
30-Nov-17 10:47 47.259551 -122.471087 2 10236ft 280kts
30-Nov-17 10:48 47.331336 -122.460212 3 9035ft 248kts
30-Nov-17 10:49 47.396946 -122.455742 358 8109ft 216kts
30-Nov-17 10:50 47.458550 -122.455067 5 6287ft 237kts
30-Nov-17 10:51 47.523045 -122.446841 5 5252ft 228kts
30-Nov-17 10:52 47.585278 -122.438949 5 5202ft 232kts
30-Nov-17 10:53 47.648422 -122.430840 5 4441ft 227kts
30-Nov-17 10:54 47.683284 -122.377016 95 3316ft 212kts
30-Nov-17 10:55 47.647995 -122.316710 154 3198ft 212kts
30-Nov-17 10:56 47.593883 -122.315682 181 3088ft 167kts
30-Nov-17 10:57 47.551600 -122.317232 178 2182ft 138kts
30-Nov-17 10:58 47.513468 -122.317383 178 1450ft 138kts
30-Nov-17 10:59 47.475932 -122.317734 178 722ft 135kts
30-Nov-17 11:00 47.445031 -122.316843 136 440ft 43kts
30-Nov-17 11:01 47.441875 -122.313629 175 440ft 14kts
30-Nov-17 11:02 47.438123 -122.312907 95 440ft 0kts
30-Nov-17 11:03 47.438075 -122.311863 92 440ft 19kts

Navigation Log

Ident Type
Flight plan parsing failed, navigation log unavailable